createdAt,value
2018-04-13T00:00:43.772Z,5.43
2018-04-13T00:06:12.708Z,3.40
2018-04-13T00:11:41.617Z,3.93
2018-04-13T00:17:09.763Z,2.73
2018-04-13T00:22:38.679Z,3.37
2018-04-13T00:28:06.816Z,5.23
2018-04-13T00:33:34.977Z,2.23
2018-04-13T00:39:03.128Z,9.50
2018-04-13T00:44:31.603Z,12.90
2018-04-13T00:50:00.506Z,4.23
2018-04-13T00:55:28.654Z,5.80
2018-04-13T01:00:57.578Z,3.27
2018-04-13T01:06:25.729Z,5.07
2018-04-13T01:11:53.872Z,4.70
2018-04-13T01:17:22.010Z,5.90
2018-04-13T01:22:50.163Z,4.43
2018-04-13T01:28:19.053Z,4.53
2018-04-13T01:33:47.179Z,8.63
2018-04-13T01:39:15.319Z,4.50
2018-04-13T01:44:43.443Z,7.90
2018-04-13T01:50:11.575Z,7.33
2018-04-13T01:55:40.493Z,5.70
2018-04-13T02:01:08.624Z,8.20
2018-04-13T02:06:37.540Z,8.57
2018-04-13T02:12:05.694Z,8.77
2018-04-13T02:17:34.591Z,8.53
2018-04-13T02:23:02.738Z,6.33
2018-04-13T02:28:31.671Z,7.77
2018-04-13T02:33:59.843Z,8.40
2018-04-13T02:39:28.060Z,9.30
2018-04-13T02:44:56.221Z,6.40
2018-04-13T02:50:25.139Z,7.03
2018-04-13T02:55:53.304Z,6.50
2018-04-13T03:01:22.231Z,8.37
2018-04-13T03:06:51.173Z,7.60
2018-04-13T03:12:20.092Z,14.47
2018-04-13T03:17:48.223Z,21.00
2018-04-13T03:23:17.137Z,13.50
2018-04-13T03:28:45.279Z,5.40
2018-04-13T03:34:14.175Z,5.30
2018-04-13T03:39:42.327Z,14.63
2018-04-13T03:45:10.463Z,7.33
2018-04-13T03:50:39.398Z,6.60
2018-04-13T03:56:08.305Z,10.43
2018-04-13T04:01:36.447Z,11.50
2018-04-13T04:07:05.374Z,9.60
2018-04-13T04:12:33.529Z,31.57
2018-04-13T04:18:01.723Z,5.87
2018-04-13T04:23:47.942Z,11.60
2018-04-13T04:29:19.521Z,8.23
2018-04-13T04:34:47.688Z,15.33
2018-04-13T04:40:15.855Z,5.20
2018-04-13T04:45:44.785Z,5.83
2018-04-13T04:51:12.952Z,10.40
2018-04-13T04:56:41.089Z,13.10
2018-04-13T05:02:09.997Z,6.97
2018-04-13T05:07:38.135Z,20.13
2018-04-13T05:13:06.270Z,8.40
2018-04-13T05:18:35.177Z,9.73
2018-04-13T05:24:03.342Z,5.90
2018-04-13T05:29:31.473Z,7.90
2018-04-13T05:34:59.623Z,12.67
2018-04-13T05:40:27.786Z,5.20
2018-04-13T05:45:56.921Z,11.50
2018-04-13T05:51:25.829Z,11.50
2018-04-13T05:56:53.991Z,4.80
2018-04-13T06:02:22.912Z,6.63
2018-04-13T06:07:51.039Z,6.67
2018-04-13T06:13:19.957Z,6.60
2018-04-13T06:18:48.106Z,2.17
2018-04-13T06:24:17.081Z,3.20
2018-04-13T06:29:45.156Z,7.53
2018-04-13T06:35:14.060Z,10.03
2018-04-13T06:40:42.242Z,7.50
2018-04-13T06:46:10.368Z,3.93
2018-04-13T06:51:38.547Z,2.70
2018-04-13T06:57:07.455Z,3.37
2018-04-13T07:02:35.653Z,4.40
2018-04-13T07:08:04.549Z,5.03
2018-04-13T07:13:33.439Z,1.87
2018-04-13T07:19:01.622Z,15.87
2018-04-13T07:24:30.531Z,2.60
2018-04-13T07:29:58.693Z,2.00
2018-04-13T07:35:26.826Z,2.37
2018-04-13T07:40:55.784Z,1.40
2018-04-13T07:46:23.946Z,2.20
2018-04-13T07:51:52.838Z,2.10
2018-04-13T07:57:20.984Z,1.20
2018-04-13T08:02:49.117Z,4.10
2018-04-13T08:08:18.032Z,1.73
2018-04-13T08:13:46.174Z,1.80
2018-04-13T08:19:15.082Z,2.03
2018-04-13T08:24:43.220Z,1.90
2018-04-13T08:30:11.369Z,1.70
2018-04-13T08:35:39.524Z,1.63
2018-04-13T08:41:07.651Z,3.50
2018-04-13T08:46:35.789Z,1.20
2018-04-13T08:52:03.928Z,0.97
2018-04-13T08:57:32.848Z,1.00
2018-04-13T09:03:00.985Z,2.43
2018-04-13T09:08:29.896Z,0.90
2018-04-13T09:13:58.043Z,1.30
2018-04-13T09:19:26.948Z,4.80
2018-04-13T09:24:55.108Z,2.63
2018-04-13T09:30:23.240Z,1.00
2018-04-13T09:35:51.398Z,2.33
2018-04-13T09:41:19.713Z,1.50
2018-04-13T09:46:48.688Z,1.77
2018-04-13T09:52:16.836Z,1.83
2018-04-13T09:57:44.984Z,8.13
2018-04-13T10:03:18.747Z,1.10
2018-04-13T10:08:46.886Z,0.80
2018-04-13T10:14:15.029Z,1.47
2018-04-13T10:19:43.932Z,3.23
2018-04-13T10:25:12.071Z,2.23
2018-04-13T10:30:40.218Z,1.00
2018-04-13T10:36:08.352Z,2.50
2018-04-13T10:41:36.501Z,1.60
2018-04-13T10:47:04.641Z,2.70
2018-04-13T10:52:32.775Z,1.73
2018-04-13T10:58:01.710Z,0.87
2018-04-13T11:03:29.850Z,1.73
2018-04-13T11:08:58.882Z,5.23
2018-04-13T11:14:27.852Z,2.10
2018-04-13T11:19:56.028Z,2.60
2018-04-13T11:25:24.961Z,2.17
2018-04-13T11:30:53.889Z,1.30
2018-04-13T11:36:22.028Z,2.93
2018-04-13T11:41:50.939Z,2.87
2018-04-13T11:47:19.099Z,6.50
2018-04-13T11:52:47.237Z,3.73
2018-04-13T11:58:15.386Z,4.53
2018-04-13T12:03:43.534Z,5.30
2018-04-13T12:09:11.678Z,8.03
2018-04-13T12:14:39.836Z,5.40
2018-04-13T12:20:07.967Z,4.03
2018-04-13T12:25:36.139Z,2.97
2018-04-13T12:31:04.350Z,5.67
2018-04-13T12:36:33.239Z,3.20
2018-04-13T12:42:01.417Z,6.43
2018-04-13T12:47:29.654Z,3.30
2018-04-13T12:52:57.808Z,4.93
2018-04-13T12:58:25.981Z,2.90
2018-04-13T13:03:54.132Z,6.23
2018-04-13T13:09:22.295Z,1.83
2018-04-13T13:14:51.247Z,2.90
2018-04-13T13:20:20.168Z,1.60
2018-04-13T13:25:48.326Z,4.60
2018-04-13T13:31:16.451Z,5.10
2018-04-13T13:36:44.601Z,3.70
2018-04-13T13:42:12.737Z,3.50
2018-04-13T13:47:40.867Z,2.63
2018-04-13T13:53:09.788Z,1.33
2018-04-13T13:58:37.921Z,2.30
2018-04-13T14:04:06.078Z,2.03
2018-04-13T14:09:34.220Z,3.10
2018-04-13T14:15:02.372Z,19.47
2018-04-13T14:20:30.537Z,14.67
2018-04-13T14:25:58.694Z,8.53
2018-04-13T14:31:26.860Z,16.80
2018-04-13T14:36:55.034Z,5.90
2018-04-13T14:42:23.202Z,6.33
2018-04-13T14:47:51.359Z,8.67
2018-04-13T14:53:19.483Z,4.90
2018-04-13T14:58:47.635Z,4.47
2018-04-13T15:04:15.789Z,3.70
2018-04-13T15:09:43.934Z,5.33
2018-04-13T15:15:12.069Z,4.10
2018-04-13T15:20:40.233Z,3.40
2018-04-13T15:26:08.384Z,4.87
2018-04-13T15:31:36.512Z,3.70
2018-04-13T15:37:04.657Z,3.80
2018-04-13T15:42:32.804Z,4.20
2018-04-13T15:48:01.794Z,6.93
2018-04-13T15:53:29.983Z,5.73
2018-04-13T15:58:58.365Z,5.90
2018-04-13T16:04:27.293Z,5.07
2018-04-13T16:09:56.425Z,5.27
2018-04-13T16:15:25.816Z,6.10
2018-04-13T16:20:53.985Z,7.47
2018-04-13T16:26:22.126Z,11.07
2018-04-13T16:31:50.256Z,5.47
2018-04-13T16:37:18.385Z,4.40
2018-04-13T16:42:47.304Z,5.07
2018-04-13T16:48:15.442Z,6.20
2018-04-13T16:53:44.335Z,6.50
2018-04-13T16:59:12.600Z,5.83
2018-04-13T17:04:41.559Z,5.87
2018-04-13T17:10:09.758Z,5.53
2018-04-13T17:15:37.959Z,4.57
2018-04-13T17:21:06.204Z,7.03
2018-04-13T17:26:35.112Z,6.60
2018-04-13T17:32:03.258Z,7.13
2018-04-13T17:37:32.169Z,4.90
2018-04-13T17:43:00.316Z,7.27
2018-04-13T17:48:29.285Z,5.47
2018-04-13T17:53:57.478Z,6.40
2018-04-13T17:59:25.637Z,5.70
2018-04-13T18:04:54.760Z,8.17
2018-04-13T18:10:22.932Z,7.87
2018-04-13T18:15:51.860Z,6.47
2018-04-13T18:21:19.997Z,7.53
2018-04-13T18:26:48.260Z,7.60
2018-04-13T18:32:16.399Z,6.80
2018-04-13T18:37:44.572Z,8.90
2018-04-13T18:43:13.475Z,11.33
2018-04-13T18:48:41.623Z,7.77
2018-04-13T18:54:09.777Z,6.83
2018-04-13T18:59:37.920Z,6.10
2018-04-13T19:05:06.095Z,10.00
2018-04-13T19:10:34.991Z,12.23
2018-04-13T19:16:03.155Z,8.83
2018-04-13T19:21:32.081Z,15.70
2018-04-13T19:27:01.003Z,10.80
2018-04-13T19:32:29.682Z,9.97
2018-04-13T19:37:58.858Z,6.87
2018-04-13T19:43:27.056Z,10.00
2018-04-13T19:48:55.240Z,8.03
2018-04-13T19:54:24.192Z,8.73
2018-04-13T19:59:52.349Z,8.80
2018-04-13T20:05:20.515Z,8.23
2018-04-13T20:10:49.425Z,9.10
2018-04-13T20:16:22.582Z,10.70
2018-04-13T20:21:52.162Z,9.50
2018-04-13T20:27:20.560Z,8.47
2018-04-13T20:32:48.864Z,8.97
2018-04-13T20:38:17.158Z,8.60
2018-04-13T20:43:45.323Z,8.50
2018-04-13T20:49:14.274Z,9.27
2018-04-13T20:54:43.322Z,11.52
2018-04-13T21:00:11.484Z,7.90
2018-04-13T21:05:39.646Z,9.30
2018-04-13T21:11:08.582Z,12.97
2018-04-13T21:16:37.507Z,10.13
2018-04-13T21:22:05.648Z,11.83
2018-04-13T21:27:34.551Z,10.13
2018-04-13T21:33:02.710Z,13.40
2018-04-13T21:38:31.633Z,10.67
2018-04-13T21:43:59.767Z,13.13
2018-04-13T21:49:28.709Z,12.17
2018-04-13T21:54:57.876Z,10.00
2018-04-13T22:00:26.601Z,12.70
2018-04-13T22:05:54.782Z,19.43
2018-04-13T22:11:22.934Z,13.30
2018-04-13T22:16:51.082Z,23.53
2018-04-13T22:22:19.240Z,18.40
2018-04-13T22:27:47.381Z,17.67
2018-04-13T22:33:16.267Z,16.20
2018-04-13T22:38:44.425Z,18.23
2018-04-13T22:44:13.338Z,20.00
2018-04-13T22:49:41.481Z,19.20
2018-04-13T22:55:10.390Z,22.27
2018-04-13T23:00:38.533Z,25.33
2018-04-13T23:06:07.437Z,29.00
2018-04-13T23:11:35.564Z,21.33
2018-04-13T23:17:03.725Z,22.10
2018-04-13T23:22:38.650Z,22.60
2018-04-13T23:28:06.781Z,25.03
2018-04-13T23:33:34.921Z,21.07
2018-04-13T23:39:03.070Z,25.83
2018-04-13T23:44:31.199Z,23.37
2018-04-13T23:49:59.356Z,27.63
2018-04-13T23:55:36.055Z,27.20
